sensor_id;sensor_type;location;lat;lon;timestamp;temperature;humidity
14786;DHT22;7484;49.906;9.058;2022-09-16T00:02:21;15.70;99.90
14786;DHT22;7484;49.906;9.058;2022-09-16T00:04:48;15.70;99.90
14786;DHT22;7484;49.906;9.058;2022-09-16T00:07:14;15.80;99.90
14786;DHT22;7484;49.906;9.058;2022-09-16T00:09:42;15.80;99.90
14786;DHT22;7484;49.906;9.058;2022-09-16T00:12:09;15.90;99.90
14786;DHT22;7484;49.906;9.058;2022-09-16T00:14:36;15.90;99.90
14786;DHT22;7484;49.906;9.058;2022-09-16T00:17:03;15.90;99.90
14786;DHT22;7484;49.906;9.058;2022-09-16T00:19:30;15.90;99.90
14786;DHT22;7484;49.906;9.058;2022-09-16T00:21:57;15.90;99.90
14786;DHT22;7484;49.906;9.058;2022-09-16T00:24:24;15.90;99.90
14786;DHT22;7484;49.906;9.058;2022-09-16T00:26:52;15.80;99.90
14786;DHT22;7484;49.906;9.058;2022-09-16T00:29:19;15.60;99.90
14786;DHT22;7484;49.906;9.058;2022-09-16T00:31:45;15.60;99.90
14786;DHT22;7484;49.906;9.058;2022-09-16T00:34:12;15.50;99.90
14786;DHT22;7484;49.906;9.058;2022-09-16T00:36:39;15.50;99.90
14786;DHT22;7484;49.906;9.058;2022-09-16T00:39:05;15.50;99.90
14786;DHT22;7484;49.906;9.058;2022-09-16T00:41:32;15.40;99.90
14786;DHT22;7484;49.906;9.058;2022-09-16T00:44:03;15.50;99.90
14786;DHT22;7484;49.906;9.058;2022-09-16T00:46:35;15.40;99.90
14786;DHT22;7484;49.906;9.058;2022-09-16T00:49:09;15.40;99.90
14786;DHT22;7484;49.906;9.058;2022-09-16T00:51:38;15.60;99.90
14786;DHT22;7484;49.906;9.058;2022-09-16T00:54:07;15.50;99.90
14786;DHT22;7484;49.906;9.058;2022-09-16T00:56:37;15.50;99.90
14786;DHT22;7484;49.906;9.058;2022-09-16T00:59:08;15.60;99.90
14786;DHT22;7484;49.906;9.058;2022-09-16T01:01:36;15.60;99.90
14786;DHT22;7484;49.906;9.058;2022-09-16T01:04:07;15.50;99.90
14786;DHT22;7484;49.906;9.058;2022-09-16T01:06:38;15.30;99.90
14786;DHT22;7484;49.906;9.058;2022-09-16T01:09:05;15.20;99.90
14786;DHT22;7484;49.906;9.058;2022-09-16T01:14:41;15.10;99.90
14786;DHT22;7484;49.906;9.058;2022-09-16T01:17:32;15.00;99.90
14786;DHT22;7484;49.906;9.058;2022-09-16T01:20:20;15.10;99.90
14786;DHT22;7484;49.906;9.058;2022-09-16T01:23:06;15.30;99.90
14786;DHT22;7484;49.906;9.058;2022-09-16T01:25:46;15.20;99.90
14786;DHT22;7484;49.906;9.058;2022-09-16T01:28:55;15.30;99.90
14786;DHT22;7484;49.906;9.058;2022-09-16T01:31:32;15.30;99.90
14786;DHT22;7484;49.906;9.058;2022-09-16T01:34:04;15.20;99.90
14786;DHT22;7484;49.906;9.058;2022-09-16T01:36:42;15.00;99.90
14786;DHT22;7484;49.906;9.058;2022-09-16T01:39:22;14.90;99.90
14786;DHT22;7484;49.906;9.058;2022-09-16T01:42:02;14.90;99.90
14786;DHT22;7484;49.906;9.058;2022-09-16T01:44:38;15.00;99.90
14786;DHT22;7484;49.906;9.058;2022-09-16T01:47:16;15.20;99.90
14786;DHT22;7484;49.906;9.058;2022-09-16T01:49:56;15.20;99.90
14786;DHT22;7484;49.906;9.058;2022-09-16T01:52:32;15.30;99.90
14786;DHT22;7484;49.906;9.058;2022-09-16T01:55:02;15.20;99.90
14786;DHT22;7484;49.906;9.058;2022-09-16T01:57:34;15.30;99.90
14786;DHT22;7484;49.906;9.058;2022-09-16T02:00:07;15.20;99.90
14786;DHT22;7484;49.906;9.058;2022-09-16T02:02:40;15.20;99.90
14786;DHT22;7484;49.906;9.058;2022-09-16T02:05:11;15.20;99.90
14786;DHT22;7484;49.906;9.058;2022-09-16T02:07:44;15.20;99.90
14786;DHT22;7484;49.906;9.058;2022-09-16T02:10:19;15.20;99.90
14786;DHT22;7484;49.906;9.058;2022-09-16T02:12:48;15.20;99.90
14786;DHT22;7484;49.906;9.058;2022-09-16T02:15:17;15.20;99.90
14786;DHT22;7484;49.906;9.058;2022-09-16T02:17:51;15.20;99.90
14786;DHT22;7484;49.906;9.058;2022-09-16T02:20:24;15.20;99.90
14786;DHT22;7484;49.906;9.058;2022-09-16T02:22:56;15.20;99.90
14786;DHT22;7484;49.906;9.058;2022-09-16T02:25:25;15.20;99.90
14786;DHT22;7484;49.906;9.058;2022-09-16T02:27:52;15.20;99.90
14786;DHT22;7484;49.906;9.058;2022-09-16T02:30:20;15.20;99.90
14786;DHT22;7484;49.906;9.058;2022-09-16T02:32:53;15.20;99.90
14786;DHT22;7484;49.906;9.058;2022-09-16T02:35:21;15.20;99.90
14786;DHT22;7484;49.906;9.058;2022-09-16T02:37:54;15.10;99.90
14786;DHT22;7484;49.906;9.058;2022-09-16T02:40:25;15.10;99.90
14786;DHT22;7484;49.906;9.058;2022-09-16T02:42:52;15.10;99.90
14786;DHT22;7484;49.906;9.058;2022-09-16T02:45:22;15.00;99.90
14786;DHT22;7484;49.906;9.058;2022-09-16T02:47:58;15.00;99.90
14786;DHT22;7484;49.906;9.058;2022-09-16T02:50:35;15.00;99.90
14786;DHT22;7484;49.906;9.058;2022-09-16T02:53:10;15.00;99.90
14786;DHT22;7484;49.906;9.058;2022-09-16T02:55:48;15.00;99.90
14786;DHT22;7484;49.906;9.058;2022-09-16T02:58:16;15.00;99.90
14786;DHT22;7484;49.906;9.058;2022-09-16T03:00:47;15.00;99.90
14786;DHT22;7484;49.906;9.058;2022-09-16T03:03:16;15.10;99.90
14786;DHT22;7484;49.906;9.058;2022-09-16T03:06:05;15.00;99.90
14786;DHT22;7484;49.906;9.058;2022-09-16T03:08:33;15.00;99.90
14786;DHT22;7484;49.906;9.058;2022-09-16T03:11:06;15.10;99.90
14786;DHT22;7484;49.906;9.058;2022-09-16T03:13:40;15.10;99.90
14786;DHT22;7484;49.906;9.058;2022-09-16T03:16:13;15.10;99.90
14786;DHT22;7484;49.906;9.058;2022-09-16T03:19:01;15.10;99.90
14786;DHT22;7484;49.906;9.058;2022-09-16T03:21:36;15.10;99.90
14786;DHT22;7484;49.906;9.058;2022-09-16T03:24:10;15.00;99.90
14786;DHT22;7484;49.906;9.058;2022-09-16T03:26:45;14.90;99.90
14786;DHT22;7484;49.906;9.058;2022-09-16T03:29:17;14.90;99.90
14786;DHT22;7484;49.906;9.058;2022-09-16T03:31:53;14.90;99.90
14786;DHT22;7484;49.906;9.058;2022-09-16T03:34:27;14.90;99.90
14786;DHT22;7484;49.906;9.058;2022-09-16T03:36:58;14.90;99.90
14786;DHT22;7484;49.906;9.058;2022-09-16T03:39:27;14.90;99.90
14786;DHT22;7484;49.906;9.058;2022-09-16T03:41:54;14.60;99.90
14786;DHT22;7484;49.906;9.058;2022-09-16T03:44:31;14.70;99.90
14786;DHT22;7484;49.906;9.058;2022-09-16T03:46:58;14.70;99.90
14786;DHT22;7484;49.906;9.058;2022-09-16T03:49:26;14.80;99.90
14786;DHT22;7484;49.906;9.058;2022-09-16T03:51:54;14.70;99.90
14786;DHT22;7484;49.906;9.058;2022-09-16T03:54:21;14.70;99.90
14786;DHT22;7484;49.906;9.058;2022-09-16T03:56:48;14.70;99.90
14786;DHT22;7484;49.906;9.058;2022-09-16T03:59:15;14.70;99.90
14786;DHT22;7484;49.906;9.058;2022-09-16T04:01:42;14.70;99.90
14786;DHT22;7484;49.906;9.058;2022-09-16T04:04:09;14.60;99.90
14786;DHT22;7484;49.906;9.058;2022-09-16T04:06:38;14.60;99.90
14786;DHT22;7484;49.906;9.058;2022-09-16T04:09:05;14.70;99.90
14786;DHT22;7484;49.906;9.058;2022-09-16T04:11:33;14.60;99.90
14786;DHT22;7484;49.906;9.058;2022-09-16T04:14:00;14.50;99.90
14786;DHT22;7484;49.906;9.058;2022-09-16T04:16:26;14.60;99.90
14786;DHT22;7484;49.906;9.058;2022-09-16T04:18:53;14.60;99.90
14786;DHT22;7484;49.906;9.058;2022-09-16T04:21:20;14.40;99.90
14786;DHT22;7484;49.906;9.058;2022-09-16T04:23:49;14.50;99.90
14786;DHT22;7484;49.906;9.058;2022-09-16T04:26:16;14.50;99.90
14786;DHT22;7484;49.906;9.058;2022-09-16T04:28:43;14.50;99.90
14786;DHT22;7484;49.906;9.058;2022-09-16T04:31:13;14.40;99.90
14786;DHT22;7484;49.906;9.058;2022-09-16T04:33:41;14.20;99.90
14786;DHT22;7484;49.906;9.058;2022-09-16T04:36:09;14.30;99.90
14786;DHT22;7484;49.906;9.058;2022-09-16T04:38:37;14.30;99.90
14786;DHT22;7484;49.906;9.058;2022-09-16T04:41:07;14.20;99.90
14786;DHT22;7484;49.906;9.058;2022-09-16T04:43:34;14.20;99.90
14786;DHT22;7484;49.906;9.058;2022-09-16T04:46:02;14.30;99.90
14786;DHT22;7484;49.906;9.058;2022-09-16T04:48:29;14.20;99.90
14786;DHT22;7484;49.906;9.058;2022-09-16T04:51:01;14.20;99.90
14786;DHT22;7484;49.906;9.058;2022-09-16T04:53:28;14.20;99.90
14786;DHT22;7484;49.906;9.058;2022-09-16T04:56:02;14.10;99.90
14786;DHT22;7484;49.906;9.058;2022-09-16T04:58:30;14.00;99.90
14786;DHT22;7484;49.906;9.058;2022-09-16T05:01:03;14.00;99.90
14786;DHT22;7484;49.906;9.058;2022-09-16T05:03:29;14.10;99.90
14786;DHT22;7484;49.906;9.058;2022-09-16T05:06:03;14.20;99.90
14786;DHT22;7484;49.906;9.058;2022-09-16T05:08:30;14.30;99.90
14786;DHT22;7484;49.906;9.058;2022-09-16T05:11:02;14.30;99.90
14786;DHT22;7484;49.906;9.058;2022-09-16T05:13:31;14.30;99.90
14786;DHT22;7484;49.906;9.058;2022-09-16T05:16:00;14.40;99.90
14786;DHT22;7484;49.906;9.058;2022-09-16T05:18:28;14.50;99.90
14786;DHT22;7484;49.906;9.058;2022-09-16T05:20:56;14.50;99.90
14786;DHT22;7484;49.906;9.058;2022-09-16T05:23:24;14.50;99.90
14786;DHT22;7484;49.906;9.058;2022-09-16T05:25:50;14.40;99.90
14786;DHT22;7484;49.906;9.058;2022-09-16T05:28:17;14.40;99.90
14786;DHT22;7484;49.906;9.058;2022-09-16T05:30:45;14.40;99.90
14786;DHT22;7484;49.906;9.058;2022-09-16T05:33:12;14.50;99.90
14786;DHT22;7484;49.906;9.058;2022-09-16T05:35:39;14.50;99.90
14786;DHT22;7484;49.906;9.058;2022-09-16T05:38:06;14.50;99.90
14786;DHT22;7484;49.906;9.058;2022-09-16T05:40:33;14.50;99.90
14786;DHT22;7484;49.906;9.058;2022-09-16T05:42:59;14.50;99.90
14786;DHT22;7484;49.906;9.058;2022-09-16T05:45:26;14.60;99.90
14786;DHT22;7484;49.906;9.058;2022-09-16T05:47:54;14.50;99.90
14786;DHT22;7484;49.906;9.058;2022-09-16T05:50:20;14.50;99.90
14786;DHT22;7484;49.906;9.058;2022-09-16T05:52:48;14.40;99.90
14786;DHT22;7484;49.906;9.058;2022-09-16T05:55:15;14.40;99.90
14786;DHT22;7484;49.906;9.058;2022-09-16T05:57:42;14.50;99.90
14786;DHT22;7484;49.906;9.058;2022-09-16T06:00:10;14.40;99.90
14786;DHT22;7484;49.906;9.058;2022-09-16T06:02:37;14.40;99.90
14786;DHT22;7484;49.906;9.058;2022-09-16T06:05:06;14.40;99.90
14786;DHT22;7484;49.906;9.058;2022-09-16T06:07:32;14.40;99.90
14786;DHT22;7484;49.906;9.058;2022-09-16T06:09:59;15.00;99.90
14786;DHT22;7484;49.906;9.058;2022-09-16T06:12:26;14.40;99.90
14786;DHT22;7484;49.906;9.058;2022-09-16T06:14:53;14.50;99.90
14786;DHT22;7484;49.906;9.058;2022-09-16T06:17:19;14.60;99.90
14786;DHT22;7484;49.906;9.058;2022-09-16T06:19:46;14.60;99.90
14786;DHT22;7484;49.906;9.058;2022-09-16T06:22:14;14.60;99.90
14786;DHT22;7484;49.906;9.058;2022-09-16T06:24:41;15.20;99.90
14786;DHT22;7484;49.906;9.058;2022-09-16T06:27:08;14.60;99.90
14786;DHT22;7484;49.906;9.058;2022-09-16T06:29:34;14.60;99.90
14786;DHT22;7484;49.906;9.058;2022-09-16T06:32:01;15.90;99.90
14786;DHT22;7484;49.906;9.058;2022-09-16T06:34:28;15.30;99.90
14786;DHT22;7484;49.906;9.058;2022-09-16T06:36:55;14.90;99.90
14786;DHT22;7484;49.906;9.058;2022-09-16T06:39:23;16.50;99.90
14786;DHT22;7484;49.906;9.058;2022-09-16T06:41:50;15.00;99.90
14786;DHT22;7484;49.906;9.058;2022-09-16T06:44:17;15.00;99.90
14786;DHT22;7484;49.906;9.058;2022-09-16T06:46:43;15.00;99.90
14786;DHT22;7484;49.906;9.058;2022-09-16T06:49:10;15.10;99.90
14786;DHT22;7484;49.906;9.058;2022-09-16T06:51:37;15.20;99.90
14786;DHT22;7484;49.906;9.058;2022-09-16T06:54:06;15.40;99.90
14786;DHT22;7484;49.906;9.058;2022-09-16T06:56:34;15.40;99.90
14786;DHT22;7484;49.906;9.058;2022-09-16T06:59:04;15.50;99.90
14786;DHT22;7484;49.906;9.058;2022-09-16T07:01:31;15.60;99.90
14786;DHT22;7484;49.906;9.058;2022-09-16T07:04:01;15.80;99.90
14786;DHT22;7484;49.906;9.058;2022-09-16T07:06:30;15.80;99.90
14786;DHT22;7484;49.906;9.058;2022-09-16T07:08:57;15.90;99.90
14786;DHT22;7484;49.906;9.058;2022-09-16T07:11:24;15.90;99.90
14786;DHT22;7484;49.906;9.058;2022-09-16T07:13:52;16.30;99.90
14786;DHT22;7484;49.906;9.058;2022-09-16T07:16:21;16.00;99.90
14786;DHT22;7484;49.906;9.058;2022-09-16T07:18:51;16.00;99.90
14786;DHT22;7484;49.906;9.058;2022-09-16T07:21:21;17.20;99.90
14786;DHT22;7484;49.906;9.058;2022-09-16T07:23:50;16.10;99.90
14786;DHT22;7484;49.906;9.058;2022-09-16T07:26:18;16.40;99.90
14786;DHT22;7484;49.906;9.058;2022-09-16T07:28:47;16.30;99.90
14786;DHT22;7484;49.906;9.058;2022-09-16T07:31:17;16.40;99.90
14786;DHT22;7484;49.906;9.058;2022-09-16T07:33:46;16.40;99.90
14786;DHT22;7484;49.906;9.058;2022-09-16T07:36:16;16.40;99.90
14786;DHT22;7484;49.906;9.058;2022-09-16T07:38:43;16.40;99.90
14786;DHT22;7484;49.906;9.058;2022-09-16T07:41:11;17.00;99.90
14786;DHT22;7484;49.906;9.058;2022-09-16T07:43:39;16.20;99.90
14786;DHT22;7484;49.906;9.058;2022-09-16T07:46:07;16.50;99.90
14786;DHT22;7484;49.906;9.058;2022-09-16T07:48:36;16.00;99.90
14786;DHT22;7484;49.906;9.058;2022-09-16T07:51:05;15.90;99.90
14786;DHT22;7484;49.906;9.058;2022-09-16T07:53:33;15.80;99.90
14786;DHT22;7484;49.906;9.058;2022-09-16T07:56:00;15.80;99.90
14786;DHT22;7484;49.906;9.058;2022-09-16T07:58:28;15.80;99.90
14786;DHT22;7484;49.906;9.058;2022-09-16T08:00:54;16.90;99.90
14786;DHT22;7484;49.906;9.058;2022-09-16T08:03:21;15.60;99.90
14786;DHT22;7484;49.906;9.058;2022-09-16T08:05:49;17.20;99.90
14786;DHT22;7484;49.906;9.058;2022-09-16T08:08:16;15.80;99.90
14786;DHT22;7484;49.906;9.058;2022-09-16T08:10:52;16.00;99.90
14786;DHT22;7484;49.906;9.058;2022-09-16T08:13:19;15.70;99.90
14786;DHT22;7484;49.906;9.058;2022-09-16T08:15:45;16.10;99.90
14786;DHT22;7484;49.906;9.058;2022-09-16T08:18:12;16.70;99.90
14786;DHT22;7484;49.906;9.058;2022-09-16T08:20:39;15.80;99.90
14786;DHT22;7484;49.906;9.058;2022-09-16T08:23:07;15.80;99.90
14786;DHT22;7484;49.906;9.058;2022-09-16T08:25:34;15.80;99.90
14786;DHT22;7484;49.906;9.058;2022-09-16T08:28:02;17.00;99.90
14786;DHT22;7484;49.906;9.058;2022-09-16T08:30:28;15.90;99.90
14786;DHT22;7484;49.906;9.058;2022-09-16T08:32:55;17.10;99.90
14786;DHT22;7484;49.906;9.058;2022-09-16T08:35:22;16.50;99.90
14786;DHT22;7484;49.906;9.058;2022-09-16T08:37:50;15.70;99.90
14786;DHT22;7484;49.906;9.058;2022-09-16T08:40:20;15.60;99.90
14786;DHT22;7484;49.906;9.058;2022-09-16T08:42:57;16.80;99.90
14786;DHT22;7484;49.906;9.058;2022-09-16T08:45:33;15.40;99.90
14786;DHT22;7484;49.906;9.058;2022-09-16T08:48:20;15.30;99.90
14786;DHT22;7484;49.906;9.058;2022-09-16T08:50:50;15.30;99.90
14786;DHT22;7484;49.906;9.058;2022-09-16T08:53:21;15.30;99.90
14786;DHT22;7484;49.906;9.058;2022-09-16T08:55:52;15.60;99.90
14786;DHT22;7484;49.906;9.058;2022-09-16T08:58:21;15.90;99.90
14786;DHT22;7484;49.906;9.058;2022-09-16T09:00:52;16.20;99.90
14786;DHT22;7484;49.906;9.058;2022-09-16T09:03:29;16.50;99.90
14786;DHT22;7484;49.906;9.058;2022-09-16T09:06:01;16.80;99.90
14786;DHT22;7484;49.906;9.058;2022-09-16T09:08:38;16.90;99.90
14786;DHT22;7484;49.906;9.058;2022-09-16T09:11:15;16.90;99.90
14786;DHT22;7484;49.906;9.058;2022-09-16T09:13:53;16.90;99.90
14786;DHT22;7484;49.906;9.058;2022-09-16T09:16:34;16.90;99.90
14786;DHT22;7484;49.906;9.058;2022-09-16T09:19:12;16.80;99.90
14786;DHT22;7484;49.906;9.058;2022-09-16T09:21:48;16.70;99.90
14786;DHT22;7484;49.906;9.058;2022-09-16T09:24:41;16.60;99.90
14786;DHT22;7484;49.906;9.058;2022-09-16T09:27:14;16.50;99.90
14786;DHT22;7484;49.906;9.058;2022-09-16T09:30:00;16.30;99.90
14786;DHT22;7484;49.906;9.058;2022-09-16T09:32:44;16.00;99.90
14786;DHT22;7484;49.906;9.058;2022-09-16T09:35:24;16.00;99.90
14786;DHT22;7484;49.906;9.058;2022-09-16T09:38:12;16.20;99.90
14786;DHT22;7484;49.906;9.058;2022-09-16T09:40:48;16.40;99.90
14786;DHT22;7484;49.906;9.058;2022-09-16T09:43:22;16.80;99.90
14786;DHT22;7484;49.906;9.058;2022-09-16T09:45:55;17.20;99.90
14786;DHT22;7484;49.906;9.058;2022-09-16T09:48:26;17.30;99.90
14786;DHT22;7484;49.906;9.058;2022-09-16T09:50:58;17.10;99.90
14786;DHT22;7484;49.906;9.058;2022-09-16T09:53:30;16.90;99.90
14786;DHT22;7484;49.906;9.058;2022-09-16T09:56:15;16.80;99.90
14786;DHT22;7484;49.906;9.058;2022-09-16T09:58:50;16.80;99.90
14786;DHT22;7484;49.906;9.058;2022-09-16T10:01:20;16.70;99.90
14786;DHT22;7484;49.906;9.058;2022-09-16T10:03:48;16.80;99.90
14786;DHT22;7484;49.906;9.058;2022-09-16T10:06:18;17.10;99.90
14786;DHT22;7484;49.906;9.058;2022-09-16T10:08:49;17.60;99.90
14786;DHT22;7484;49.906;9.058;2022-09-16T10:11:18;18.10;99.90
14786;DHT22;7484;49.906;9.058;2022-09-16T10:13:49;18.50;99.90
14786;DHT22;7484;49.906;9.058;2022-09-16T10:16:18;18.40;99.90
14786;DHT22;7484;49.906;9.058;2022-09-16T10:18:55;18.20;99.90
14786;DHT22;7484;49.906;9.058;2022-09-16T10:21:23;18.00;99.90
14786;DHT22;7484;49.906;9.058;2022-09-16T10:23:55;17.90;99.90
14786;DHT22;7484;49.906;9.058;2022-09-16T10:26:24;17.80;99.90
14786;DHT22;7484;49.906;9.058;2022-09-16T10:29:15;17.90;99.90
14786;DHT22;7484;49.906;9.058;2022-09-16T10:31:42;17.90;99.90
14786;DHT22;7484;49.906;9.058;2022-09-16T10:34:17;18.00;99.90
14786;DHT22;7484;49.906;9.058;2022-09-16T10:36:45;17.80;99.90
14786;DHT22;7484;49.906;9.058;2022-09-16T10:39:21;17.80;99.90
14786;DHT22;7484;49.906;9.058;2022-09-16T10:41:49;17.90;99.90
14786;DHT22;7484;49.906;9.058;2022-09-16T10:44:22;17.90;99.90
14786;DHT22;7484;49.906;9.058;2022-09-16T10:46:56;18.10;99.90
14786;DHT22;7484;49.906;9.058;2022-09-16T10:49:29;18.20;99.90
14786;DHT22;7484;49.906;9.058;2022-09-16T10:52:07;18.10;99.90
14786;DHT22;7484;49.906;9.058;2022-09-16T10:54:34;18.10;99.90
14786;DHT22;7484;49.906;9.058;2022-09-16T10:57:00;18.00;99.90
14786;DHT22;7484;49.906;9.058;2022-09-16T10:59:28;18.00;99.90
14786;DHT22;7484;49.906;9.058;2022-09-16T11:02:03;18.00;99.90
14786;DHT22;7484;49.906;9.058;2022-09-16T11:04:43;17.90;99.90
14786;DHT22;7484;49.906;9.058;2022-09-16T11:07:24;17.70;99.90
14786;DHT22;7484;49.906;9.058;2022-09-16T11:09:58;17.60;99.90
14786;DHT22;7484;49.906;9.058;2022-09-16T11:15:34;17.90;99.90
14786;DHT22;7484;49.906;9.058;2022-09-16T11:18:13;17.90;99.90
14786;DHT22;7484;49.906;9.058;2022-09-16T11:20:55;18.00;99.90
14786;DHT22;7484;49.906;9.058;2022-09-16T11:23:45;17.90;99.90
14786;DHT22;7484;49.906;9.058;2022-09-16T11:26:22;17.70;99.90
14786;DHT22;7484;49.906;9.058;2022-09-16T11:29:04;17.70;99.90
14786;DHT22;7484;49.906;9.058;2022-09-16T11:31:39;17.90;99.90
14786;DHT22;7484;49.906;9.058;2022-09-16T11:34:16;17.90;99.90
14786;DHT22;7484;49.906;9.058;2022-09-16T11:36:54;17.90;99.90
14786;DHT22;7484;49.906;9.058;2022-09-16T11:39:38;17.90;99.90
14786;DHT22;7484;49.906;9.058;2022-09-16T11:42:12;18.00;99.90
14786;DHT22;7484;49.906;9.058;2022-09-16T11:44:45;18.10;99.90
14786;DHT22;7484;49.906;9.058;2022-09-16T11:47:35;18.20;99.90
14786;DHT22;7484;49.906;9.058;2022-09-16T11:50:21;18.10;99.90
14786;DHT22;7484;49.906;9.058;2022-09-16T11:53:13;18.10;99.90
14786;DHT22;7484;49.906;9.058;2022-09-16T11:55:50;18.10;99.90
14786;DHT22;7484;49.906;9.058;2022-09-16T11:58:31;18.20;99.90
14786;DHT22;7484;49.906;9.058;2022-09-16T12:01:02;18.50;99.90
14786;DHT22;7484;49.906;9.058;2022-09-16T12:03:41;18.80;99.90
14786;DHT22;7484;49.906;9.058;2022-09-16T12:06:10;18.70;99.90
14786;DHT22;7484;49.906;9.058;2022-09-16T12:08:47;18.50;99.90
14786;DHT22;7484;49.906;9.058;2022-09-16T12:11:20;18.40;99.90
14786;DHT22;7484;49.906;9.058;2022-09-16T12:13:50;18.30;99.90
14786;DHT22;7484;49.906;9.058;2022-09-16T12:16:21;18.20;99.90
14786;DHT22;7484;49.906;9.058;2022-09-16T12:18:56;18.20;99.90
14786;DHT22;7484;49.906;9.058;2022-09-16T12:21:26;18.20;99.90
14786;DHT22;7484;49.906;9.058;2022-09-16T12:23:57;18.70;99.90
14786;DHT22;7484;49.906;9.058;2022-09-16T12:26:29;19.10;99.90
14786;DHT22;7484;49.906;9.058;2022-09-16T12:29:03;19.30;99.90
14786;DHT22;7484;49.906;9.058;2022-09-16T12:31:34;19.70;99.90
14786;DHT22;7484;49.906;9.058;2022-09-16T12:34:09;19.90;99.90
14786;DHT22;7484;49.906;9.058;2022-09-16T12:36:38;20.10;99.90
14786;DHT22;7484;49.906;9.058;2022-09-16T12:39:09;20.20;99.90
14786;DHT22;7484;49.906;9.058;2022-09-16T12:41:50;19.90;99.70
14786;DHT22;7484;49.906;9.058;2022-09-16T12:44:41;19.80;99.90
14786;DHT22;7484;49.906;9.058;2022-09-16T12:47:21;19.90;99.20
14786;DHT22;7484;49.906;9.058;2022-09-16T12:50:20;19.80;99.70
14786;DHT22;7484;49.906;9.058;2022-09-16T12:56:25;20.30;99.20
14786;DHT22;7484;49.906;9.058;2022-09-16T13:02:02;17.60;99.90
14786;DHT22;7484;49.906;9.058;2022-09-16T13:04:32;17.00;99.90
14786;DHT22;7484;49.906;9.058;2022-09-16T13:07:01;16.60;99.90
14786;DHT22;7484;49.906;9.058;2022-09-16T13:09:29;16.00;99.90
14786;DHT22;7484;49.906;9.058;2022-09-16T13:11:59;15.40;99.90
14786;DHT22;7484;49.906;9.058;2022-09-16T13:14:29;15.00;99.90
14786;DHT22;7484;49.906;9.058;2022-09-16T13:16:59;14.80;99.90
14786;DHT22;7484;49.906;9.058;2022-09-16T13:19:37;14.70;99.90
14786;DHT22;7484;49.906;9.058;2022-09-16T13:22:21;14.60;99.90
14786;DHT22;7484;49.906;9.058;2022-09-16T13:24:52;14.80;99.90
14786;DHT22;7484;49.906;9.058;2022-09-16T13:27:28;15.40;99.90
14786;DHT22;7484;49.906;9.058;2022-09-16T13:30:12;16.40;99.90
14786;DHT22;7484;49.906;9.058;2022-09-16T13:32:43;17.50;99.90
14786;DHT22;7484;49.906;9.058;2022-09-16T13:35:35;18.40;99.90
14786;DHT22;7484;49.906;9.058;2022-09-16T13:38:22;19.00;99.90
14786;DHT22;7484;49.906;9.058;2022-09-16T13:40:54;19.60;99.90
14786;DHT22;7484;49.906;9.058;2022-09-16T13:43:32;20.20;99.90
14786;DHT22;7484;49.906;9.058;2022-09-16T13:46:02;20.60;99.90
14786;DHT22;7484;49.906;9.058;2022-09-16T13:48:35;21.00;99.90
14786;DHT22;7484;49.906;9.058;2022-09-16T13:51:08;21.20;99.90
14786;DHT22;7484;49.906;9.058;2022-09-16T13:53:43;21.10;99.90
14786;DHT22;7484;49.906;9.058;2022-09-16T13:56:30;20.90;99.90
14786;DHT22;7484;49.906;9.058;2022-09-16T13:59:06;21.10;99.90
14786;DHT22;7484;49.906;9.058;2022-09-16T14:01:38;21.30;99.90
14786;DHT22;7484;49.906;9.058;2022-09-16T14:04:13;21.70;99.90
14786;DHT22;7484;49.906;9.058;2022-09-16T14:06:56;21.90;99.90
14786;DHT22;7484;49.906;9.058;2022-09-16T14:09:37;21.80;99.90
14786;DHT22;7484;49.906;9.058;2022-09-16T14:12:15;21.20;99.90
14786;DHT22;7484;49.906;9.058;2022-09-16T14:14:44;20.60;99.90
14786;DHT22;7484;49.906;9.058;2022-09-16T14:17:18;20.60;99.90
14786;DHT22;7484;49.906;9.058;2022-09-16T14:19:45;20.80;99.90
14786;DHT22;7484;49.906;9.058;2022-09-16T14:22:15;20.70;99.90
14786;DHT22;7484;49.906;9.058;2022-09-16T14:24:45;20.50;99.90
14786;DHT22;7484;49.906;9.058;2022-09-16T14:27:20;20.70;99.90
14786;DHT22;7484;49.906;9.058;2022-09-16T14:29:55;21.30;99.90
14786;DHT22;7484;49.906;9.058;2022-09-16T14:32:23;21.60;99.90
14786;DHT22;7484;49.906;9.058;2022-09-16T14:34:52;21.60;99.90
14786;DHT22;7484;49.906;9.058;2022-09-16T14:37:20;20.70;99.90
14786;DHT22;7484;49.906;9.058;2022-09-16T14:39:48;20.00;99.90
14786;DHT22;7484;49.906;9.058;2022-09-16T14:42:19;19.50;99.90
14786;DHT22;7484;49.906;9.058;2022-09-16T14:44:49;18.90;99.90
14786;DHT22;7484;49.906;9.058;2022-09-16T14:47:20;18.50;99.90
14786;DHT22;7484;49.906;9.058;2022-09-16T14:49:49;18.30;99.90
14786;DHT22;7484;49.906;9.058;2022-09-16T14:52:19;18.20;99.90
14786;DHT22;7484;49.906;9.058;2022-09-16T14:54:48;18.30;99.90
14786;DHT22;7484;49.906;9.058;2022-09-16T14:57:18;18.10;99.90
14786;DHT22;7484;49.906;9.058;2022-09-16T14:59:47;18.00;99.90
14786;DHT22;7484;49.906;9.058;2022-09-16T15:02:17;18.00;99.90
14786;DHT22;7484;49.906;9.058;2022-09-16T15:04:50;18.10;99.90
14786;DHT22;7484;49.906;9.058;2022-09-16T15:07:21;18.10;99.90
14786;DHT22;7484;49.906;9.058;2022-09-16T15:09:52;18.10;99.90
14786;DHT22;7484;49.906;9.058;2022-09-16T15:12:23;17.90;99.90
14786;DHT22;7484;49.906;9.058;2022-09-16T15:14:51;17.80;99.90
14786;DHT22;7484;49.906;9.058;2022-09-16T15:17:19;17.70;99.90
14786;DHT22;7484;49.906;9.058;2022-09-16T15:19:50;17.50;99.90
14786;DHT22;7484;49.906;9.058;2022-09-16T15:22:19;17.40;99.90
14786;DHT22;7484;49.906;9.058;2022-09-16T15:24:50;17.40;99.90
14786;DHT22;7484;49.906;9.058;2022-09-16T15:27:26;17.30;99.90
14786;DHT22;7484;49.906;9.058;2022-09-16T15:29:56;17.20;99.90
14786;DHT22;7484;49.906;9.058;2022-09-16T15:32:24;17.10;99.90
14786;DHT22;7484;49.906;9.058;2022-09-16T15:35:09;17.10;99.90
14786;DHT22;7484;49.906;9.058;2022-09-16T15:37:36;17.10;99.90
14786;DHT22;7484;49.906;9.058;2022-09-16T15:40:20;17.20;99.90
14786;DHT22;7484;49.906;9.058;2022-09-16T15:42:47;17.10;99.90
14786;DHT22;7484;49.906;9.058;2022-09-16T15:45:16;17.30;99.90
14786;DHT22;7484;49.906;9.058;2022-09-16T15:47:56;17.90;99.90
14786;DHT22;7484;49.906;9.058;2022-09-16T15:50:24;18.10;99.90
14786;DHT22;7484;49.906;9.058;2022-09-16T15:52:56;17.90;99.90
14786;DHT22;7484;49.906;9.058;2022-09-16T15:55:30;17.70;99.90
14786;DHT22;7484;49.906;9.058;2022-09-16T15:58:05;17.60;99.90
14786;DHT22;7484;49.906;9.058;2022-09-16T16:00:53;17.50;99.90
14786;DHT22;7484;49.906;9.058;2022-09-16T16:03:23;17.40;99.90
14786;DHT22;7484;49.906;9.058;2022-09-16T16:05:51;17.30;99.90
14786;DHT22;7484;49.906;9.058;2022-09-16T16:08:36;17.20;99.90
14786;DHT22;7484;49.906;9.058;2022-09-16T16:11:09;17.10;99.90
14786;DHT22;7484;49.906;9.058;2022-09-16T16:13:36;16.90;99.90
14786;DHT22;7484;49.906;9.058;2022-09-16T16:16:04;16.80;99.90
14786;DHT22;7484;49.906;9.058;2022-09-16T16:18:32;16.70;99.90
14786;DHT22;7484;49.906;9.058;2022-09-16T16:21:03;16.60;99.90
14786;DHT22;7484;49.906;9.058;2022-09-16T16:23:30;16.40;99.90
14786;DHT22;7484;49.906;9.058;2022-09-16T16:25:58;15.90;99.90
14786;DHT22;7484;49.906;9.058;2022-09-16T16:28:26;15.60;99.90